createdAt,value
2023-09-01T00:00:58.058Z,99.99
2023-09-01T00:01:58.063Z,99.99
2023-09-01T00:02:58.134Z,99.99
2023-09-01T00:03:58.045Z,99.99
2023-09-01T00:04:58.008Z,99.99
2023-09-01T00:05:58.002Z,99.99
2023-09-01T00:06:58.036Z,99.99
2023-09-01T00:07:58.012Z,99.99
2023-09-01T00:08:57.979Z,99.99
2023-09-01T00:09:57.974Z,99.99
2023-09-01T00:10:57.968Z,99.99
2023-09-01T00:11:57.986Z,99.99
2023-09-01T00:12:57.952Z,99.99
2023-09-01T00:13:58.015Z,99.99
2023-09-01T00:14:57.940Z,99.99
2023-09-01T00:15:57.956Z,99.99
2023-09-01T00:16:57.980Z,99.99
2023-09-01T00:17:57.948Z,99.99
2023-09-01T00:18:57.900Z,99.99
2023-09-01T00:19:57.894Z,99.99
2023-09-01T00:20:57.910Z,99.99
2023-09-01T00:21:57.877Z,99.99
2023-09-01T00:22:57.862Z,99.99
2023-09-01T00:23:57.853Z,99.99
2023-09-01T00:24:57.847Z,99.99
2023-09-01T00:25:57.970Z,99.99
2023-09-01T00:26:57.832Z,99.99
2023-09-01T00:27:57.819Z,99.99
2023-09-01T00:28:57.819Z,99.99
2023-09-01T00:29:57.836Z,99.99
2023-09-01T00:30:57.914Z,99.99
2023-09-01T00:31:57.799Z,99.99
2023-09-01T00:32:57.879Z,99.99
2023-09-01T00:33:57.781Z,99.99
2023-09-01T00:34:57.840Z,99.99
2023-09-01T00:35:57.770Z,99.99
2023-09-01T00:36:57.751Z,99.99
2023-09-01T00:37:57.745Z,99.99
2023-09-01T00:38:57.742Z,99.99
2023-09-01T00:39:57.755Z,99.99
2023-09-01T00:40:57.728Z,99.99
2023-09-01T00:41:57.727Z,99.99
2023-09-01T00:42:57.705Z,99.99
2023-09-01T00:43:57.738Z,99.99
2023-09-01T00:44:57.718Z,99.99
2023-09-01T00:45:57.921Z,99.99
2023-09-01T00:46:57.709Z,99.99
2023-09-01T00:47:57.758Z,99.99
2023-09-01T00:48:57.689Z,99.99
2023-09-01T00:49:57.685Z,99.99
2023-09-01T00:50:57.666Z,99.99
2023-09-01T00:51:57.640Z,99.99
2023-09-01T00:52:57.638Z,99.99
2023-09-01T00:53:57.659Z,99.99
2023-09-01T00:54:57.621Z,99.99
2023-09-01T00:55:57.627Z,99.99
2023-09-01T00:56:57.605Z,99.99
2023-09-01T00:57:57.619Z,99.99
2023-09-01T00:58:57.622Z,99.99
2023-09-01T00:59:57.583Z,99.99
2023-09-01T01:00:57.580Z,99.99
2023-09-01T01:01:57.594Z,99.99
2023-09-01T01:02:57.656Z,99.99
2023-09-01T01:03:57.564Z,99.99
2023-09-01T01:04:57.541Z,99.99
2023-09-01T01:05:57.554Z,99.99
2023-09-01T01:06:57.535Z,99.99
2023-09-01T01:07:57.551Z,99.99
2023-09-01T01:08:57.517Z,99.99
2023-09-01T01:09:57.501Z,99.99
2023-09-01T01:10:57.490Z,99.99
2023-09-01T01:11:57.514Z,99.99
2023-09-01T01:12:57.501Z,99.99
2023-09-01T01:13:57.482Z,99.99
2023-09-01T01:14:57.459Z,99.99
2023-09-01T01:15:57.496Z,99.99
2023-09-01T01:16:57.470Z,99.99
2023-09-01T01:17:57.487Z,99.99
2023-09-01T01:18:57.440Z,99.99
2023-09-01T01:19:57.423Z,99.99
2023-09-01T01:20:57.427Z,99.99
2023-09-01T01:21:57.434Z,99.99
2023-09-01T01:22:57.404Z,99.99
2023-09-01T01:23:57.394Z,99.99
2023-09-01T01:24:57.397Z,99.99
2023-09-01T01:25:57.409Z,99.99
2023-09-01T01:26:57.392Z,99.99
2023-09-01T01:27:57.364Z,99.99
2023-09-01T01:28:57.348Z,99.99
2023-09-01T01:29:57.347Z,99.99
2023-09-01T01:30:57.362Z,99.99
2023-09-01T01:31:57.388Z,99.99
2023-09-01T01:32:57.352Z,99.99
2023-09-01T01:33:57.314Z,99.99
2023-09-01T01:34:57.314Z,99.99
2023-09-01T01:35:57.321Z,99.99
2023-09-01T01:36:57.296Z,99.99
2023-09-01T01:37:57.285Z,99.99
2023-09-01T01:38:57.284Z,99.99
2023-09-01T01:39:57.263Z,99.99
2023-09-01T01:40:57.283Z,99.99
2023-09-01T01:41:59.496Z,99.99
2023-09-01T01:42:58.245Z,99.99
2023-09-01T01:43:57.244Z,99.99
2023-09-01T01:44:57.282Z,99.99
2023-09-01T01:45:57.304Z,99.99
2023-09-01T01:46:57.215Z,99.99
2023-09-01T01:47:57.227Z,99.99
2023-09-01T01:48:57.203Z,99.99
2023-09-01T01:49:57.212Z,99.99
2023-09-01T01:50:57.184Z,99.99
2023-09-01T01:51:57.174Z,99.99
2023-09-01T01:52:57.169Z,99.99
2023-09-01T01:53:57.154Z,99.99
2023-09-01T01:54:57.174Z,99.99
2023-09-01T01:55:57.145Z,99.99
2023-09-01T01:56:57.140Z,99.99
2023-09-01T01:57:57.125Z,99.99
2023-09-01T01:58:57.144Z,99.99
2023-09-01T01:59:57.141Z,99.99
2023-09-01T02:00:57.121Z,99.99
2023-09-01T02:01:57.093Z,99.99
2023-09-01T02:02:57.101Z,99.99
2023-09-01T02:03:57.109Z,99.99
2023-09-01T02:04:57.157Z,99.99
2023-09-01T02:05:57.375Z,99.99
2023-09-01T02:06:58.047Z,99.99
2023-09-01T02:07:58.051Z,99.99
2023-09-01T02:08:57.068Z,99.99
2023-09-01T02:09:57.040Z,99.99
2023-09-01T02:10:57.026Z,99.99
2023-09-01T02:11:57.031Z,99.99
2023-09-01T02:12:57.035Z,99.99
2023-09-01T02:13:57.032Z,99.99
2023-09-01T02:14:56.999Z,99.99
2023-09-01T02:15:57.027Z,99.99
2023-09-01T02:16:56.982Z,99.99
2023-09-01T02:17:57.024Z,99.99
2023-09-01T02:18:56.993Z,99.99
2023-09-01T02:19:56.956Z,99.99
2023-09-01T02:20:56.964Z,99.99
2023-09-01T02:21:56.960Z,99.99
2023-09-01T02:22:56.975Z,99.99
2023-09-01T02:23:56.999Z,99.99
2023-09-01T02:24:56.927Z,99.99
2023-09-01T02:25:56.912Z,99.99
2023-09-01T02:26:56.906Z,99.99
2023-09-01T02:27:56.924Z,99.99
2023-09-01T02:28:56.889Z,99.99
2023-09-01T02:29:56.880Z,99.99
2023-09-01T02:30:56.905Z,99.99
2023-09-01T02:31:56.894Z,99.99
2023-09-01T02:32:56.903Z,99.99
2023-09-01T02:33:56.858Z,99.99
2023-09-01T02:34:56.838Z,99.99
2023-09-01T02:35:56.839Z,99.99
2023-09-01T02:36:56.867Z,99.99
2023-09-01T02:37:56.816Z,99.99
2023-09-01T02:38:56.835Z,99.99
2023-09-01T02:39:56.803Z,99.99
2023-09-01T02:40:56.801Z,99.99
2023-09-01T02:41:56.816Z,99.99
2023-09-01T02:42:56.794Z,99.99
2023-09-01T02:43:56.792Z,99.99
2023-09-01T02:44:56.767Z,99.99
2023-09-01T02:45:56.786Z,99.99
2023-09-01T02:46:56.775Z,99.99
2023-09-01T02:47:56.773Z,99.99
2023-09-01T02:48:56.741Z,99.99
2023-09-01T02:49:56.731Z,99.99
2023-09-01T02:50:56.747Z,99.99
2023-09-01T02:51:56.733Z,99.99
2023-09-01T02:52:56.718Z,99.99
2023-09-01T02:53:56.711Z,99.99
2023-09-01T02:54:56.692Z,99.99
2023-09-01T02:55:56.717Z,99.99
2023-09-01T02:56:56.690Z,99.99
2023-09-01T02:57:56.672Z,99.99
2023-09-01T02:58:56.666Z,99.99
2023-09-01T02:59:56.652Z,99.99
2023-09-01T03:00:56.724Z,99.99
2023-09-01T03:01:56.641Z,99.99
2023-09-01T03:02:56.694Z,99.99
2023-09-01T03:03:56.623Z,99.99
2023-09-01T03:04:56.649Z,99.99
2023-09-01T03:05:56.642Z,99.99
2023-09-01T03:06:56.613Z,99.99
2023-09-01T03:07:56.594Z,99.99
2023-09-01T03:08:56.588Z,99.99
2023-09-01T03:09:56.614Z,99.99
2023-09-01T03:10:56.571Z,99.99
2023-09-01T03:11:56.585Z,99.99
2023-09-01T03:12:56.564Z,99.99
2023-09-01T03:13:56.549Z,99.99
2023-09-01T03:14:56.570Z,99.99
2023-09-01T03:15:56.539Z,99.99
2023-09-01T03:16:56.519Z,99.99
2023-09-01T03:17:56.542Z,99.99
2023-09-01T03:18:56.540Z,99.99
2023-09-01T03:19:56.538Z,99.99
2023-09-01T03:20:56.531Z,99.99
2023-09-01T03:21:56.496Z,99.99
2023-09-01T03:22:56.490Z,99.99
2023-09-01T03:23:56.550Z,99.99
2023-09-01T03:24:56.481Z,99.99
2023-09-01T03:25:56.481Z,99.99
2023-09-01T03:26:56.463Z,99.99
2023-09-01T03:27:56.455Z,99.99
2023-09-01T03:28:56.472Z,99.99
2023-09-01T03:29:56.461Z,99.99
2023-09-01T03:30:56.425Z,99.99
2023-09-01T03:31:56.483Z,99.99
2023-09-01T03:32:56.472Z,99.99
2023-09-01T03:33:56.430Z,99.99
2023-09-01T03:34:56.418Z,99.99
2023-09-01T03:35:56.411Z,99.99
2023-09-01T03:36:56.402Z,99.99
2023-09-01T03:37:56.381Z,99.99
2023-09-01T03:38:56.373Z,99.99
2023-09-01T03:39:56.358Z,99.99
2023-09-01T03:40:56.366Z,99.99
2023-09-01T03:41:57.343Z,99.99
2023-09-01T03:42:56.333Z,99.99
2023-09-01T03:43:56.330Z,99.99
2023-09-01T03:44:56.348Z,99.99
2023-09-01T03:45:56.400Z,99.99
2023-09-01T03:46:56.313Z,99.99
2023-09-01T03:47:56.345Z,99.99
2023-09-01T03:48:56.288Z,99.99
2023-09-01T03:49:57.308Z,99.99
2023-09-01T03:50:56.278Z,99.99
2023-09-01T03:51:56.381Z,99.99
2023-09-01T03:52:56.254Z,99.99
2023-09-01T03:53:56.247Z,99.99
2023-09-01T03:54:56.264Z,99.99
2023-09-01T03:55:56.232Z,99.99
2023-09-01T03:56:56.230Z,99.99
2023-09-01T03:57:56.218Z,99.99
2023-09-01T03:58:56.237Z,99.99
2023-09-01T03:59:56.225Z,99.99
2023-09-01T04:00:56.193Z,99.99
2023-09-01T04:01:56.210Z,99.99
2023-09-01T04:02:56.205Z,99.99
2023-09-01T04:03:56.286Z,99.99
2023-09-01T04:04:56.166Z,99.99
2023-09-01T04:05:56.161Z,99.99
2023-09-01T04:06:56.151Z,99.99
2023-09-01T04:07:56.142Z,99.99
2023-09-01T04:08:56.167Z,99.99
2023-09-01T04:09:56.130Z,99.99
2023-09-01T04:10:56.125Z,99.99
2023-09-01T04:11:56.116Z,99.99
2023-09-01T04:12:56.106Z,99.99
2023-09-01T04:13:56.120Z,99.99
2023-09-01T04:14:56.083Z,99.99
2023-09-01T04:15:57.110Z,99.99
2023-09-01T04:16:56.071Z,99.99
2023-09-01T04:17:56.131Z,99.99
2023-09-01T04:18:57.083Z,99.99
2023-09-01T04:19:56.063Z,99.99
2023-09-01T04:20:56.094Z,99.99
2023-09-01T04:21:56.036Z,99.99
2023-09-01T04:22:56.054Z,99.99
2023-09-01T04:23:56.027Z,99.99
2023-09-01T04:24:56.015Z,99.99
2023-09-01T04:25:56.030Z,99.99
2023-09-01T04:26:56.009Z,99.99
2023-09-01T04:27:56.014Z,99.99
2023-09-01T04:28:55.989Z,99.99
2023-09-01T04:30:09.265Z,99.99
2023-09-01T04:30:57.962Z,99.99
2023-09-01T04:31:55.979Z,99.99
2023-09-01T04:32:56.043Z,99.99
2023-09-01T04:33:55.946Z,99.99
2023-09-01T04:34:55.934Z,99.99
2023-09-01T04:35:55.922Z,99.99
2023-09-01T04:36:55.942Z,99.99
2023-09-01T04:37:55.931Z,99.99
2023-09-01T04:38:55.903Z,99.99
2023-09-01T04:39:55.920Z,99.99
2023-09-01T04:40:55.893Z,99.99
2023-09-01T04:41:55.899Z,99.99
2023-09-01T04:42:58.015Z,99.99
2023-09-01T04:43:55.867Z,99.99
2023-09-01T04:44:55.846Z,99.99
2023-09-01T04:45:55.880Z,99.99
2023-09-01T04:46:55.871Z,99.99
2023-09-01T04:47:55.831Z,99.99
2023-09-01T04:48:55.817Z,99.99
2023-09-01T04:49:55.807Z,99.99
2023-09-01T04:50:55.810Z,99.99
2023-09-01T04:51:55.820Z,99.99
2023-09-01T04:52:55.815Z,99.99
2023-09-01T04:53:55.782Z,99.99
2023-09-01T04:54:55.776Z,99.99
2023-09-01T04:55:55.793Z,99.99
2023-09-01T04:56:55.778Z,99.99
2023-09-01T04:57:55.753Z,99.99
2023-09-01T04:58:55.740Z,99.99
2023-09-01T04:59:55.734Z,99.99
2023-09-01T05:00:55.811Z,99.99
2023-09-01T05:01:55.724Z,99.99
2023-09-01T05:02:55.773Z,99.99
2023-09-01T05:03:55.736Z,99.99
2023-09-01T05:04:55.699Z,99.99
2023-09-01T05:05:55.713Z,99.99
2023-09-01T05:06:55.685Z,99.99
2023-09-01T05:07:55.681Z,99.99
2023-09-01T05:08:55.682Z,99.99
2023-09-01T05:09:55.710Z,99.99
2023-09-01T05:10:55.688Z,99.99
2023-09-01T05:11:55.651Z,99.99
2023-09-01T05:12:55.640Z,99.99
2023-09-01T05:13:55.639Z,99.99
2023-09-01T05:14:55.675Z,99.99
2023-09-01T05:15:55.621Z,99.99
2023-09-01T05:16:55.649Z,99.99
2023-09-01T05:17:55.842Z,99.99
2023-09-01T05:18:55.596Z,99.99
2023-09-01T05:19:55.623Z,99.99
2023-09-01T05:20:55.595Z,99.99
2023-09-01T05:21:55.577Z,99.99
2023-09-01T05:22:55.586Z,99.99
2023-09-01T05:23:55.590Z,99.99
2023-09-01T05:24:55.582Z,99.99
2023-09-01T05:25:55.560Z,99.99
2023-09-01T05:26:55.540Z,99.99
2023-09-01T05:27:55.531Z,99.99
2023-09-01T05:28:55.538Z,99.99
2023-09-01T05:29:55.546Z,99.99
2023-09-01T05:30:55.550Z,99.99
2023-09-01T05:31:55.512Z,99.99
2023-09-01T05:32:55.572Z,99.99
2023-09-01T05:33:55.511Z,99.99
2023-09-01T05:34:55.510Z,99.99
2023-09-01T05:35:55.473Z,99.99
2023-09-01T05:36:55.462Z,99.99
2023-09-01T05:37:55.458Z,99.99
2023-09-01T05:38:55.495Z,99.99
2023-09-01T05:39:55.438Z,99.99
2023-09-01T05:40:55.427Z,99.99
2023-09-01T05:41:55.418Z,99.99
2023-09-01T05:42:55.434Z,99.99
2023-09-01T05:43:55.429Z,99.99
2023-09-01T05:44:55.396Z,99.99
2023-09-01T05:45:57.931Z,99.99
2023-09-01T05:46:56.383Z,99.99
2023-09-01T05:47:55.411Z,99.99
2023-09-01T05:48:55.365Z,99.99
2023-09-01T05:49:55.360Z,99.99
2023-09-01T05:50:55.354Z,99.99
2023-09-01T05:51:55.341Z,99.99
2023-09-01T05:52:55.358Z,99.47
2023-09-01T05:53:55.331Z,99.47
2023-09-01T05:54:55.323Z,99.47
2023-09-01T05:55:55.310Z,99.52
2023-09-01T05:56:55.311Z,99.77
2023-09-01T05:57:55.320Z,99.73
2023-09-01T05:58:55.292Z,99.73
2023-09-01T05:59:55.294Z,99.63
2023-09-01T06:00:55.275Z,99.63
2023-09-01T06:01:55.342Z,99.63
2023-09-01T06:02:55.349Z,99.32
2023-09-01T06:03:55.257Z,99.11
2023-09-01T06:04:55.241Z,99.83
2023-09-01T06:05:55.243Z,99.63
2023-09-01T06:06:55.281Z,99.42
2023-09-01T06:07:55.228Z,99.52
2023-09-01T06:08:55.215Z,99.48
2023-09-01T06:09:55.207Z,99.22
2023-09-01T06:10:55.200Z,99.11
2023-09-01T06:11:55.215Z,98.56
2023-09-01T06:12:55.181Z,98.77
2023-09-01T06:13:55.182Z,98.16
2023-09-01T06:14:55.179Z,98.05
2023-09-01T06:15:55.167Z,98.46
2023-09-01T06:16:55.182Z,98.66
2023-09-01T06:17:55.956Z,98.01
2023-09-01T06:18:55.138Z,97.71
2023-09-01T06:19:55.127Z,97.71
2023-09-01T06:20:55.149Z,97.86
2023-09-01T06:21:55.138Z,97.96
2023-09-01T06:22:55.124Z,97.40
2023-09-01T06:23:55.094Z,97.96
2023-09-01T06:24:55.092Z,97.86
2023-09-01T06:25:55.135Z,97.35
2023-09-01T06:26:56.031Z,97.61
2023-09-01T06:27:56.077Z,97.41
2023-09-01T06:28:55.075Z,97.61
2023-09-01T06:29:55.075Z,96.50
2023-09-01T06:30:55.092Z,96.50
2023-09-01T06:31:55.035Z,96.80
2023-09-01T06:32:55.072Z,96.66
2023-09-01T06:33:55.056Z,95.68
2023-09-01T06:34:55.043Z,96.45
2023-09-01T06:35:55.031Z,96.75
2023-09-01T06:36:55.010Z,95.50
2023-09-01T06:37:54.984Z,95.09
2023-09-01T06:38:54.987Z,95.90
2023-09-01T06:39:54.996Z,94.98
2023-09-01T06:40:54.964Z,95.19
2023-09-01T06:41:54.958Z,94.89
2023-09-01T06:42:54.949Z,95.90
2023-09-01T06:43:54.938Z,96.66
2023-09-01T06:44:54.963Z,96.46
2023-09-01T06:45:54.962Z,96.11
2023-09-01T06:46:54.929Z,95.91
2023-09-01T06:47:54.938Z,94.90
2023-09-01T06:48:54.910Z,95.10
2023-09-01T06:49:54.917Z,94.70
2023-09-01T06:50:54.892Z,94.79
2023-09-01T06:51:54.906Z,94.14
2023-09-01T06:52:54.874Z,93.13
2023-09-01T06:53:54.862Z,92.68
2023-09-01T06:54:54.889Z,92.88
2023-09-01T06:55:54.850Z,92.99
2023-09-01T06:56:54.882Z,93.49
2023-09-01T06:57:54.882Z,93.49
2023-09-01T06:58:54.835Z,92.54
2023-09-01T06:59:54.849Z,92.02
2023-09-01T07:00:54.823Z,92.68
2023-09-01T07:01:54.854Z,92.38
2023-09-01T07:02:54.861Z,93.03
2023-09-01T07:03:54.833Z,92.93
2023-09-01T07:04:54.810Z,93.74
2023-09-01T07:05:54.782Z,94.10
2023-09-01T07:06:54.758Z,93.39
2023-09-01T07:07:54.757Z,92.99
2023-09-01T07:08:54.766Z,92.83
2023-09-01T07:09:54.752Z,93.13
2023-09-01T07:10:54.758Z,93.84
2023-09-01T07:11:54.720Z,93.84
2023-09-01T07:12:54.717Z,93.94
2023-09-01T07:13:54.732Z,93.94
2023-09-01T07:14:54.701Z,93.74
2023-09-01T07:15:54.705Z,93.74
2023-09-01T07:16:54.689Z,93.94
2023-09-01T07:17:54.694Z,93.94
2023-09-01T07:18:54.694Z,93.94
2023-09-01T07:19:54.727Z,94.14
2023-09-01T07:20:54.655Z,94.35
2023-09-01T07:21:54.638Z,94.65
2023-09-01T07:22:54.633Z,94.95
2023-09-01T07:23:54.656Z,95.06
2023-09-01T07:24:54.618Z,94.75
2023-09-01T07:25:54.611Z,94.00
2023-09-01T07:26:54.597Z,93.49
2023-09-01T07:27:54.613Z,94.00
2023-09-01T07:28:54.622Z,93.70
2023-09-01T07:29:54.581Z,94.30
2023-09-01T07:30:54.652Z,94.40
2023-09-01T07:31:54.566Z,94.40
2023-09-01T07:32:54.611Z,93.65
2023-09-01T07:33:54.544Z,93.35
2023-09-01T07:34:54.541Z,93.85
2023-09-01T07:35:54.532Z,93.60
2023-09-01T07:36:54.520Z,93.35
2023-09-01T07:37:54.543Z,93.81
2023-09-01T07:38:54.511Z,93.91
2023-09-01T07:39:54.498Z,92.49
2023-09-01T07:40:54.492Z,93.16
2023-09-01T07:41:57.022Z,92.00
2023-09-01T07:42:54.503Z,91.80
2023-09-01T07:43:54.469Z,91.15
2023-09-01T07:44:54.465Z,91.05
2023-09-01T07:45:54.483Z,89.59
2023-09-01T07:46:54.469Z,89.25
2023-09-01T07:48:10.060Z,88.34
2023-09-01T07:48:56.464Z,88.70
2023-09-01T07:49:54.425Z,88.00
2023-09-01T07:50:54.420Z,87.80
2023-09-01T07:51:54.434Z,88.00
2023-09-01T07:52:54.402Z,87.96
2023-09-01T07:53:54.397Z,88.26
2023-09-01T07:54:54.386Z,87.65
2023-09-01T07:55:54.379Z,87.01
2023-09-01T07:56:54.394Z,87.21
2023-09-01T07:57:54.373Z,86.91
2023-09-01T07:58:54.356Z,87.47
2023-09-01T07:59:54.349Z,86.87
2023-09-01T08:00:54.377Z,86.57
2023-09-01T08:01:54.355Z,86.87
2023-09-01T08:02:55.062Z,87.07
2023-09-01T08:03:55.341Z,87.47
2023-09-01T08:04:54.308Z,87.07
2023-09-01T08:05:54.337Z,87.11
2023-09-01T08:06:54.294Z,87.71
2023-09-01T08:07:54.287Z,88.16
2023-09-01T08:08:54.277Z,87.15
2023-09-01T08:09:54.269Z,87.92
2023-09-01T08:10:54.290Z,87.71
2023-09-01T08:11:54.261Z,88.42
2023-09-01T08:12:54.247Z,88.07
2023-09-01T08:13:54.243Z,87.98
2023-09-01T08:14:54.267Z,87.67
2023-09-01T08:15:54.248Z,86.87
2023-09-01T08:16:54.254Z,86.41
2023-09-01T08:17:54.221Z,87.07
2023-09-01T08:18:54.206Z,87.98
2023-09-01T08:19:54.221Z,87.62
2023-09-01T08:20:54.235Z,87.82
2023-09-01T08:21:54.183Z,87.82
2023-09-01T08:22:54.189Z,87.77
2023-09-01T08:23:54.165Z,87.98
2023-09-01T08:24:54.188Z,86.83
2023-09-01T08:25:54.169Z,86.88
2023-09-01T08:26:54.145Z,86.24
2023-09-01T08:27:54.151Z,87.41
2023-09-01T08:28:54.127Z,86.66
2023-09-01T08:29:54.148Z,83.91
2023-09-01T08:30:54.187Z,82.73
2023-09-01T08:31:54.106Z,81.04
2023-09-01T08:32:54.107Z,79.67
2023-09-01T08:33:54.093Z,79.17
2023-09-01T08:34:54.109Z,79.97
2023-09-01T08:35:54.077Z,80.97
2023-09-01T08:36:54.072Z,80.87
2023-09-01T08:37:54.063Z,79.97
2023-09-01T08:38:54.093Z,81.47
2023-09-01T08:39:54.079Z,81.51
2023-09-01T08:40:54.043Z,81.51
2023-09-01T08:41:54.053Z,80.80
2023-09-01T08:42:54.030Z,81.11
2023-09-01T08:43:54.059Z,80.00
2023-09-01T08:44:54.014Z,82.27
2023-09-01T08:46:04.812Z,81.87
2023-09-01T08:46:56.048Z,82.21
2023-09-01T08:47:54.008Z,82.71
2023-09-01T08:48:54.034Z,81.71
2023-09-01T08:49:54.032Z,81.45
2023-09-01T08:50:53.964Z,82.29
2023-09-01T08:51:53.956Z,82.49
2023-09-01T08:52:53.946Z,81.59
2023-09-01T08:53:53.972Z,83.29
2023-09-01T08:54:53.935Z,83.09
2023-09-01T08:55:53.924Z,83.03
2023-09-01T08:56:53.915Z,83.93
2023-09-01T08:57:53.951Z,83.23
2023-09-01T08:58:53.925Z,82.31
2023-09-01T08:59:53.891Z,82.37
2023-09-01T09:00:53.884Z,82.29
2023-09-01T09:01:53.924Z,80.89
2023-09-01T09:03:07.089Z,79.83
2023-09-01T09:03:56.076Z,80.07
2023-09-01T09:04:53.856Z,81.41
2023-09-01T09:05:53.852Z,82.11
2023-09-01T09:06:53.844Z,82.24
2023-09-01T09:07:53.855Z,82.05
2023-09-01T09:08:53.821Z,81.79
2023-09-01T09:09:53.813Z,81.99
2023-09-01T09:10:53.815Z,82.18
2023-09-01T09:11:53.830Z,83.19
2023-09-01T09:12:53.817Z,83.69
2023-09-01T09:14:04.223Z,83.39
2023-09-01T09:14:59.117Z,83.25
2023-09-01T09:15:54.809Z,83.45
2023-09-01T09:16:53.817Z,82.91
2023-09-01T09:17:53.816Z,82.41
2023-09-01T09:18:53.882Z,82.71
2023-09-01T09:19:53.895Z,83.15
2023-09-01T09:20:53.741Z,82.99
2023-09-01T09:21:53.743Z,83.19
2023-09-01T09:22:53.730Z,83.39
2023-09-01T09:24:00.441Z,84.43
2023-09-01T09:24:55.696Z,84.23
2023-09-01T09:25:53.690Z,83.79
2023-09-01T09:26:53.706Z,82.99
2023-09-01T09:27:53.676Z,82.39
2023-09-01T09:28:53.666Z,83.43
2023-09-01T09:29:53.676Z,83.83
2023-09-01T09:30:53.680Z,84.43
2023-09-01T09:31:53.757Z,83.23
2023-09-01T09:32:53.732Z,83.99
2023-09-01T09:33:53.625Z,83.79
2023-09-01T09:34:53.620Z,83.95
2023-09-01T09:35:53.638Z,82.85
2023-09-01T09:36:53.638Z,82.18
2023-09-01T09:37:53.596Z,82.75
2023-09-01T09:38:53.598Z,82.11
2023-09-01T09:39:53.584Z,82.41
2023-09-01T09:40:53.600Z,82.51
2023-09-01T09:41:53.582Z,81.74
2023-09-01T09:42:53.565Z,81.95
2023-09-01T09:43:53.617Z,81.65
2023-09-01T09:44:53.585Z,81.95
2023-09-01T09:45:53.621Z,83.29
2023-09-01T09:46:53.531Z,83.33
2023-09-01T09:47:53.599Z,84.37
2023-09-01T09:48:53.551Z,84.67
2023-09-01T09:49:53.506Z,85.27
2023-09-01T09:50:53.532Z,84.57
2023-09-01T09:51:53.500Z,84.27
2023-09-01T09:52:53.484Z,84.83
2023-09-01T09:53:53.488Z,84.27
2023-09-01T09:54:53.498Z,83.97
2023-09-01T09:55:53.504Z,84.67
2023-09-01T09:56:53.460Z,84.81
2023-09-01T09:57:53.447Z,85.31
2023-09-01T09:58:53.445Z,85.31
2023-09-01T09:59:53.465Z,85.25
2023-09-01T10:00:53.422Z,85.36
2023-09-01T10:01:53.480Z,85.86
2023-09-01T10:02:53.528Z,85.16
2023-09-01T10:03:53.448Z,86.00
2023-09-01T10:04:53.421Z,86.46
2023-09-01T10:05:53.385Z,86.70
2023-09-01T10:06:53.382Z,86.10
2023-09-01T10:07:53.372Z,86.90
2023-09-01T10:08:53.365Z,87.51
2023-09-01T10:09:53.387Z,86.86
2023-09-01T10:10:53.386Z,87.71
2023-09-01T10:11:53.345Z,87.91
2023-09-01T10:12:53.339Z,87.71
2023-09-01T10:13:53.330Z,87.51
2023-09-01T10:14:53.345Z,87.71
2023-09-01T10:15:53.359Z,88.51
2023-09-01T10:16:53.326Z,87.41
2023-09-01T10:17:53.323Z,87.91
2023-09-01T10:18:53.294Z,86.70
2023-09-01T10:19:53.309Z,87.30
2023-09-01T10:20:53.266Z,87.91
2023-09-01T10:21:53.269Z,87.71
2023-09-01T10:22:53.262Z,87.91
2023-09-01T10:23:53.250Z,87.21
2023-09-01T10:24:53.268Z,87.57
2023-09-01T10:25:53.240Z,87.57
2023-09-01T10:26:53.228Z,87.77
2023-09-01T10:27:53.233Z,87.06
2023-09-01T10:28:53.244Z,87.57
2023-09-01T10:29:53.224Z,87.57
2023-09-01T10:30:53.224Z,87.21
2023-09-01T10:31:53.194Z,86.80
2023-09-01T10:32:53.255Z,87.30
2023-09-01T10:33:53.237Z,87.71
2023-09-01T10:34:53.171Z,88.01
2023-09-01T10:35:53.165Z,88.41
2023-09-01T10:36:53.150Z,87.81
2023-09-01T10:37:53.142Z,87.91
2023-09-01T10:38:53.173Z,88.17
2023-09-01T10:39:53.131Z,87.91
2023-09-01T10:40:53.117Z,87.30
2023-09-01T10:41:53.107Z,88.21
2023-09-01T10:42:53.112Z,87.60
2023-09-01T10:43:53.134Z,87.81
2023-09-01T10:44:53.089Z,88.21
2023-09-01T10:45:53.079Z,88.21
2023-09-01T10:46:53.139Z,88.41
2023-09-01T10:47:53.266Z,88.91
2023-09-01T10:48:53.100Z,89.76
2023-09-01T10:49:53.083Z,89.31
2023-09-01T10:50:53.046Z,90.62
2023-09-01T10:51:53.035Z,89.82
2023-09-01T10:52:53.081Z,90.22
2023-09-01T10:53:53.016Z,90.22
2023-09-01T10:54:53.039Z,91.22
2023-09-01T10:55:53.008Z,91.42
2023-09-01T10:56:53.009Z,90.68
2023-09-01T10:57:53.027Z,90.68
2023-09-01T10:58:52.986Z,91.63
2023-09-01T10:59:52.973Z,91.18
2023-09-01T11:00:52.984Z,90.72
2023-09-01T11:01:53.035Z,92.73
2023-09-01T11:02:53.012Z,91.63
2023-09-01T11:03:52.940Z,91.08
2023-09-01T11:04:52.945Z,91.18
2023-09-01T11:05:52.934Z,90.68
2023-09-01T11:06:52.949Z,92.08
2023-09-01T11:07:52.941Z,91.99
2023-09-01T11:08:52.910Z,92.18
2023-09-01T11:09:52.904Z,91.48
2023-09-01T11:10:54.149Z,92.69
2023-09-01T11:11:52.915Z,93.79
2023-09-01T11:12:52.881Z,91.99
2023-09-01T11:13:52.870Z,91.48
2023-09-01T11:14:52.865Z,91.52
2023-09-01T11:15:52.858Z,91.88
2023-09-01T11:16:52.891Z,91.38
2023-09-01T11:17:52.868Z,91.38
2023-09-01T11:18:52.836Z,92.08
2023-09-01T11:19:52.821Z,91.74
2023-09-01T11:20:52.822Z,92.04
2023-09-01T11:21:52.833Z,91.80
2023-09-01T11:22:52.795Z,91.34
2023-09-01T11:23:52.797Z,90.94
2023-09-01T11:24:52.787Z,91.44
2023-09-01T11:25:52.781Z,91.64
2023-09-01T11:26:52.793Z,91.34
2023-09-01T11:27:52.766Z,91.68
2023-09-01T11:28:52.759Z,92.69
2023-09-01T11:29:52.754Z,92.18
2023-09-01T11:30:52.803Z,93.19
2023-09-01T11:31:52.761Z,92.99
2023-09-01T11:32:52.877Z,93.74
2023-09-01T11:33:52.733Z,93.63
2023-09-01T11:34:52.741Z,95.04
2023-09-01T11:35:52.702Z,95.10
2023-09-01T11:36:52.702Z,93.74
2023-09-01T11:37:52.692Z,94.20
2023-09-01T11:38:52.725Z,94.29
2023-09-01T11:39:52.697Z,94.20
2023-09-01T11:40:52.701Z,93.99
2023-09-01T11:41:52.654Z,93.79
2023-09-01T11:42:52.657Z,93.69
2023-09-01T11:43:52.665Z,93.99
2023-09-01T11:44:52.635Z,94.79
2023-09-01T11:45:52.685Z,94.13
2023-09-01T11:46:52.624Z,95.04
2023-09-01T11:47:52.646Z,95.04
2023-09-01T11:48:52.623Z,94.84
2023-09-01T11:49:52.590Z,94.94
2023-09-01T11:50:52.606Z,94.79
2023-09-01T11:51:52.579Z,94.79
2023-09-01T11:52:52.604Z,95.60
2023-09-01T11:53:52.593Z,94.90
2023-09-01T11:54:52.557Z,94.79
2023-09-01T11:55:52.552Z,94.09
2023-09-01T11:56:52.533Z,94.15
2023-09-01T11:57:52.563Z,93.15
2023-09-01T11:58:52.522Z,93.15
2023-09-01T11:59:52.520Z,93.10
2023-09-01T12:00:52.503Z,93.65
2023-09-01T12:01:52.515Z,93.65
2023-09-01T12:02:52.555Z,93.90
2023-09-01T12:03:52.508Z,92.24
2023-09-01T12:04:52.477Z,93.24
2023-09-01T12:05:52.513Z,93.35
2023-09-01T12:06:52.503Z,93.74
2023-09-01T12:07:52.478Z,94.05
2023-09-01T12:08:52.497Z,93.99
2023-09-01T12:09:52.440Z,93.15
2023-09-01T12:10:52.432Z,94.15
2023-09-01T12:11:52.446Z,95.15
2023-09-01T12:12:52.416Z,95.00
2023-09-01T12:13:52.410Z,94.85
2023-09-01T12:14:52.400Z,93.44
2023-09-01T12:15:52.403Z,93.95
2023-09-01T12:16:53.412Z,93.99
2023-09-01T12:17:53.400Z,93.99
2023-09-01T12:18:52.374Z,94.39
2023-09-01T12:19:52.414Z,94.79
2023-09-01T12:20:52.380Z,94.29
2023-09-01T12:21:52.383Z,94.90
2023-09-01T12:22:52.343Z,94.95
2023-09-01T12:23:52.336Z,93.65
2023-09-01T12:24:52.317Z,94.20
2023-09-01T12:25:53.341Z,93.95
2023-09-01T12:26:52.388Z,95.15
2023-09-01T12:27:52.305Z,94.55
2023-09-01T12:28:52.297Z,93.95
2023-09-01T12:29:52.309Z,93.74
2023-09-01T12:30:52.301Z,94.15
2023-09-01T12:31:52.284Z,93.65
2023-09-01T12:32:52.283Z,93.89
2023-09-01T12:33:52.301Z,93.29
2023-09-01T12:34:54.706Z,93.69
2023-09-01T12:35:52.263Z,93.39
2023-09-01T12:36:52.226Z,94.05
2023-09-01T12:37:52.245Z,93.65
2023-09-01T12:38:52.207Z,94.95
2023-09-01T12:39:52.229Z,94.05
2023-09-01T12:40:53.195Z,94.85
2023-09-01T12:41:52.182Z,94.35
2023-09-01T12:42:52.194Z,93.65
2023-09-01T12:43:52.191Z,93.79
2023-09-01T12:44:52.188Z,94.75
2023-09-01T12:45:52.276Z,94.65
2023-09-01T12:46:52.154Z,95.25
2023-09-01T12:47:52.151Z,95.55
2023-09-01T12:48:52.129Z,94.85
2023-09-01T12:49:52.162Z,93.60
2023-09-01T12:50:52.113Z,94.51
2023-09-01T12:51:52.113Z,94.81
2023-09-01T12:52:52.094Z,94.35